Time;durP1;ratioP1;P1;durP2;ratioP2;P2;SDS_P1;SDS_P2;PMS_P1;PMS_P2;Temp;Humidity;BMP_temperature;BMP_pressure;BME280_temperature;BME280_humidity;BME280_pressure;Samples;Min_cycle;Max_cycle;Signal;HPM_P1;HPM_P2
2023/01/20 00:03:21;;;;;;;48.40;19.75;;;;;;;-0.28;81.10;99850.88;10188454;29;20086;-78
2023/01/20 00:08:24;;;;;;;62.95;29.38;;;;;;;-0.04;79.90;99845.41;10186803;29;20507;-78
2023/01/20 00:13:27;;;;;;;57.60;27.40;;;;;;;0.04;79.42;99853.84;10193501;29;20071;-78
2023/01/20 00:18:32;;;;;;;64.07;29.13;;;;;;;-0.22;80.22;99865.56;10194283;29;20071;-78
2023/01/20 00:23:35;;;;;;;47.83;22.65;;;;;;;-0.16;78.59;99866.16;10194936;29;20044;-78
2023/01/20 00:28:37;;;;;;;65.53;30.25;;;;;;;-0.36;79.94;99874.09;10200932;29;20052;-77
2023/01/20 00:33:42;;;;;;;67.53;30.85;;;;;;;-0.43;80.74;99888.50;10186334;29;20044;-77
2023/01/20 00:38:45;;;;;;;59.15;26.83;;;;;;;-0.64;80.56;99883.22;10201552;29;20047;-78
2023/01/20 00:43:48;;;;;;;47.20;20.83;;;;;;;-0.30;79.88;99881.78;10198907;29;20045;-78
2023/01/20 00:48:53;;;;;;;57.60;21.23;;;;;;;-0.53;79.76;99893.31;10189503;29;20048;-78
2023/01/20 00:53:56;;;;;;;46.47;22.50;;;;;;;-0.51;80.45;99897.59;10188340;29;20522;-78
2023/01/20 00:58:59;;;;;;;63.35;27.13;;;;;;;0.04;78.77;99891.66;10195533;29;20500;-78
2023/01/20 01:04:03;;;;;;;56.22;24.80;;;;;;;-0.01;78.74;99898.94;10203979;29;20043;-78
2023/01/20 01:09:06;;;;;;;59.58;26.52;;;;;;;0.26;77.65;99891.53;10186312;29;20052;-78
2023/01/20 01:14:09;;;;;;;61.60;25.70;;;;;;;0.38;77.51;99898.03;10187586;29;20048;-77
2023/01/20 01:19:13;;;;;;;61.88;25.70;;;;;;;0.41;77.41;99912.88;10188681;29;20071;-79
2023/01/20 01:24:16;;;;;;;62.60;27.42;;;;;;;0.58;77.63;99908.53;10194804;29;20588;-78
2023/01/20 01:29:19;;;;;;;59.78;28.15;;;;;;;0.72;78.48;99922.91;10190716;29;20108;-76
2023/01/20 01:34:23;;;;;;;61.60;29.05;;;;;;;0.82;79.65;99929.44;10183994;29;20470;-78
2023/01/20 01:39:27;;;;;;;61.17;28.30;;;;;;;0.90;80.03;99937.84;10195586;29;20500;-78
2023/01/20 01:44:31;;;;;;;60.25;26.40;;;;;;;0.87;79.01;99937.16;10196876;29;20407;-78
2023/01/20 01:49:35;;;;;;;51.75;24.83;;;;;;;0.87;78.89;99935.38;10203817;29;20063;-78
2023/01/20 01:54:44;;;;;;;57.55;25.80;;;;;;;0.86;78.58;99940.75;10193854;29;20648;-77
2023/01/20 01:59:47;;;;;;;54.88;25.05;;;;;;;0.83;78.26;99944.38;10190495;29;20118;-77
2023/01/20 02:04:51;;;;;;;52.08;24.45;;;;;;;0.83;77.98;99947.03;10192980;29;20078;-77
2023/01/20 02:09:54;;;;;;;60.08;24.15;;;;;;;0.84;77.79;99946.09;10184781;29;20104;-78
2023/01/20 02:14:59;;;;;;;51.58;22.30;;;;;;;0.54;77.48;99948.38;10181463;29;20068;-78
2023/01/20 02:20:24;;;;;;;52.95;20.70;;;;;;;0.55;76.86;99952.75;10204429;29;20460;-79
2023/01/20 02:25:44;;;;;;;55.47;24.77;;;;;;;0.86;77.00;99972.47;10195113;29;20067;-78
2023/01/20 02:31:18;;;;;;;56.05;26.67;;;;;;;0.95;77.69;99972.88;10205510;29;20115;-77
2023/01/20 02:36:29;;;;;;;58.90;24.80;;;;;;;0.94;77.57;99981.75;10208205;29;20051;-77
2023/01/20 02:41:38;;;;;;;49.60;24.95;;;;;;;0.94;77.99;99980.91;10201980;29;20171;-78
2023/01/20 02:46:51;;;;;;;57.35;26.48;;;;;;;1.00;78.32;99988.53;10191157;29;20396;-77
2023/01/20 02:52:01;;;;;;;56.22;26.52;;;;;;;0.89;77.92;99989.03;10205423;29;20373;-78
2023/01/20 02:57:08;;;;;;;67.45;27.20;;;;;;;0.68;77.69;99987.41;10212656;29;20411;-77
2023/01/20 03:02:15;;;;;;;62.63;28.50;;;;;;;0.53;78.24;99986.34;10204007;29;20095;-77
2023/01/20 03:07:23;;;;;;;69.13;28.55;;;;;;;0.37;78.25;100002.88;10191916;29;20240;-79
2023/01/20 03:12:31;;;;;;;67.75;27.50;;;;;;;0.42;78.03;100007.97;10182701;29;20157;-78
2023/01/20 03:17:34;;;;;;;67.47;30.45;;;;;;;0.50;78.33;100007.63;10177431;29;20071;-78
2023/01/20 03:22:38;;;;;;;66.15;28.00;;;;;;;0.42;78.13;100005.31;10184017;29;20055;-77
2023/01/20 03:27:42;;;;;;;62.70;30.45;;;;;;;0.45;78.50;100007.81;10191841;29;20047;-77
2023/01/20 03:32:48;;;;;;;67.05;31.40;;;;;;;0.36;78.43;100010.88;10219259;23;20562;-76
2023/01/20 03:37:52;;;;;;;79.15;32.45;;;;;;;0.35;78.49;100009.16;10183530;29;20048;-75
2023/01/20 03:43:01;;;;;;;74.07;32.60;;;;;;;0.28;78.61;100020.94;10201272;29;20154;-75
2023/01/20 03:48:12;;;;;;;68.85;31.02;;;;;;;0.37;78.69;100031.94;10197448;29;20059;-75
2023/01/20 03:53:27;;;;;;;70.93;31.10;;;;;;;0.41;78.76;100029.16;10182972;29;20049;-75
2023/01/20 03:58:35;;;;;;;67.63;30.05;;;;;;;0.45;79.01;100036.03;10202857;29;20515;-75
2023/01/20 04:03:40;;;;;;;71.72;30.10;;;;;;;0.52;79.07;100038.34;10198405;29;20040;-75
2023/01/20 04:08:47;;;;;;;62.70;31.25;;;;;;;0.55;78.87;100047.88;10200210;29;20051;-74
2023/01/20 04:13:51;;;;;;;66.72;31.60;;;;;;;0.57;79.36;100046.91;10199039;29;20075;-75
2023/01/20 04:18:54;;;;;;;65.45;29.83;;;;;;;0.43;79.24;100054.59;10188982;29;20126;-75
2023/01/20 04:24:03;;;;;;;62.00;28.95;;;;;;;0.29;79.02;100049.06;10199002;29;20047;-75
2023/01/20 04:29:08;;;;;;;59.42;25.90;;;;;;;0.28;79.39;100058.78;10222194;29;20036;-75
2023/01/20 04:34:15;;;;;;;57.40;25.33;;;;;;;0.07;80.00;100071.13;10205812;29;20047;-76
2023/01/20 04:39:19;;;;;;;59.38;27.40;;;;;;;0.36;78.85;100063.72;10191158;29;20040;-76
2023/01/20 04:44:22;;;;;;;59.00;28.48;;;;;;;0.40;78.92;100067.94;10198296;29;20040;-76
2023/01/20 04:49:24;;;;;;;62.60;28.05;;;;;;;0.38;78.59;100070.66;10199343;29;20067;-76
2023/01/20 04:54:29;;;;;;;55.17;26.85;;;;;;;0.15;79.00;100073.44;10192637;29;20051;-76
2023/01/20 04:59:32;;;;;;;58.47;27.45;;;;;;;0.30;78.89;100066.63;10191941;29;20087;-76
2023/01/20 05:04:36;;;;;;;61.45;27.25;;;;;;;0.35;78.90;100072.56;10188237;29;20127;-75
2023/01/20 05:09:40;;;;;;;57.88;27.60;;;;;;;0.32;79.27;100076.19;10195909;29;20043;-75
2023/01/20 05:14:43;;;;;;;68.05;29.13;;;;;;;0.41;78.60;100080.22;10207299;29;20411;-75
2023/01/20 05:19:46;;;;;;;54.92;26.20;;;;;;;0.36;78.32;100082.22;10217659;29;20143;-74
2023/01/20 05:24:50;;;;;;;66.30;30.77;;;;;;;0.30;78.70;100096.56;10216003;29;20118;-75
2023/01/20 05:29:53;;;;;;;62.42;29.67;;;;;;;0.30;78.29;100096.56;10207752;29;20058;-75
2023/01/20 05:34:56;;;;;;;64.50;28.95;;;;;;;0.31;78.59;100105.34;10196169;29;20040;-75
2023/01/20 05:40:00;;;;;;;63.10;28.70;;;;;;;0.27;78.38;100101.97;10191092;29;20077;-75
2023/01/20 05:45:03;;;;;;;60.58;27.30;;;;;;;0.23;78.22;100112.75;10187551;29;20051;-75
2023/01/20 05:50:07;;;;;;;49.85;22.35;;;;;;;0.30;77.71;100115.06;10195060;29;20048;-75
2023/01/20 05:55:14;;;;;;;47.58;23.30;;;;;;;0.20;77.30;100107.59;10200683;29;20076;-73
2023/01/20 06:00:18;;;;;;;45.70;19.92;;;;;;;0.32;76.34;100112.34;10186663;29;20048;-74
2023/01/20 06:05:22;;;;;;;50.40;24.00;;;;;;;0.37;76.34;100116.50;10187361;29;20051;-75
2023/01/20 06:10:26;;;;;;;50.08;24.05;;;;;;;0.34;76.07;100124.56;10185824;29;20233;-74
2023/01/20 06:15:29;;;;;;;54.65;24.33;;;;;;;0.47;75.76;100130.19;10217098;29;20107;-76
2023/01/20 06:20:32;;;;;;;44.30;20.90;;;;;;;0.08;76.11;100149.44;10223707;29;20043;-75
2023/01/20 06:25:36;;;;;;;48.92;22.92;;;;;;;0.44;75.76;100132.97;10184655;29;20396;-76
2023/01/20 06:30:41;;;;;;;50.15;22.35;;;;;;;0.37;75.46;100144.72;10198221;29;20091;-76
2023/01/20 06:35:44;;;;;;;56.33;21.85;;;;;;;0.27;75.70;100149.50;10189050;29;20040;-76
2023/01/20 06:40:48;;;;;;;52.00;24.27;;;;;;;0.35;76.10;100152.69;10177001;29;20048;-76
2023/01/20 06:45:51;;;;;;;55.20;26.77;;;;;;;0.50;75.97;100160.91;10172801;29;20068;-76
2023/01/20 06:50:54;;;;;;;44.08;22.15;;;;;;;0.36;76.10;100172.06;10189635;29;20461;-76
2023/01/20 06:56:00;;;;;;;60.28;28.02;;;;;;;0.47;76.27;100163.69;10196733;29;20103;-75
2023/01/20 07:01:08;;;;;;;58.08;26.23;;;;;;;0.38;76.43;100167.56;10206941;29;20069;-75
2023/01/20 07:06:17;;;;;;;59.85;28.42;;;;;;;0.52;75.93;100193.41;10177929;29;20048;-75
2023/01/20 07:11:21;;;;;;;58.78;26.95;;;;;;;0.48;76.26;100187.41;10185920;29;20055;-75
2023/01/20 07:16:24;;;;;;;55.95;26.27;;;;;;;0.41;76.64;100193.00;10170560;29;20080;-75
2023/01/20 07:21:27;;;;;;;62.78;24.42;;;;;;;0.46;76.65;100198.97;10173630;29;20163;-75
2023/01/20 07:26:32;;;;;;;56.13;23.50;;;;;;;0.37;76.36;100211.63;10190314;29;20044;-75
2023/01/20 07:31:35;;;;;;;56.75;26.60;;;;;;;0.46;76.13;100223.59;10186028;29;20166;-75
2023/01/20 07:36:38;;;;;;;53.33;22.23;;;;;;;0.45;76.67;100223.69;10192034;29;20495;-74
2023/01/20 07:41:44;;;;;;;61.05;27.23;;;;;;;0.61;76.18;100235.31;10181789;29;20119;-73
2023/01/20 07:46:47;;;;;;;53.97;25.92;;;;;;;0.77;76.17;100243.47;10174743;28;20130;-75
2023/01/20 07:51:50;;;;;;;55.30;25.83;;;;;;;0.84;76.13;100240.47;10157754;28;20040;-73
2023/01/20 07:56:54;;;;;;;61.70;27.33;;;;;;;0.87;76.55;100255.34;10175472;28;20123;-73
2023/01/20 08:01:57;;;;;;;55.35;26.20;;;;;;;0.71;75.96;100263.06;10139701;29;20056;-73
2023/01/20 08:07:00;;;;;;;52.50;24.45;;;;;;;0.76;76.05;100271.69;10145012;29;20048;-73
2023/01/20 08:12:04;;;;;;;53.10;26.08;;;;;;;0.71;75.67;100278.94;10145733;29;20677;-74
2023/01/20 08:17:07;;;;;;;58.10;27.00;;;;;;;0.64;75.68;100288.06;10141212;29;20052;-74
2023/01/20 08:22:10;;;;;;;55.55;25.23;;;;;;;0.89;75.80;100294.97;10140469;29;20055;-74
2023/01/20 08:27:14;;;;;;;54.90;27.58;;;;;;;0.95;75.94;100300.00;10144734;29;20051;-73
2023/01/20 08:32:17;;;;;;;56.88;25.20;;;;;;;0.86;75.79;100303.91;10164299;28;20126;-74
2023/01/20 08:37:20;;;;;;;59.55;28.23;;;;;;;1.00;76.31;100317.41;10152317;28;20054;-74
2023/01/20 08:42:24;;;;;;;59.78;26.00;;;;;;;1.04;75.92;100320.75;10161808;29;20720;-73
2023/01/20 08:47:27;;;;;;;56.17;26.90;;;;;;;1.08;75.96;100327.66;10175213;28;20051;-73
2023/01/20 08:52:30;;;;;;;53.67;25.92;;;;;;;1.03;76.10;100329.63;10177368;28;20059;-73
2023/01/20 08:57:34;;;;;;;62.17;26.25;;;;;;;1.15;76.22;100334.41;10174734;28;20507;-74
2023/01/20 09:02:37;;;;;;;55.55;25.60;;;;;;;1.21;76.14;100334.16;10167553;28;20531;-74
2023/01/20 09:07:40;;;;;;;50.17;24.02;;;;;;;1.23;75.79;100331.41;10172246;28;20518;-75
2023/01/20 09:12:45;;;;;;;48.60;24.42;;;;;;;1.33;75.21;100332.75;10166089;28;20554;-74
2023/01/20 09:17:48;;;;;;;55.88;23.60;;;;;;;1.30;74.89;100335.53;10160403;28;20672;-74
2023/01/20 09:22:51;;;;;;;52.30;24.88;;;;;;;1.45;74.85;100336.63;10161618;28;20060;-74
2023/01/20 09:27:55;;;;;;;57.60;27.25;;;;;;;1.63;74.73;100342.94;10163356;28;20139;-73
2023/01/20 09:32:58;;;;;;;51.03;26.02;;;;;;;1.73;74.73;100346.88;10149404;28;20078;-74
2023/01/20 09:54:26;;;;;;;48.10;24.42;;;;;;;2.04;71.26;100361.38;10157681;28;20044;-74
2023/01/20 09:59:37;;;;;;;41.47;22.70;;;;;;;2.10;71.22;100366.38;10177118;28;20426;-73
2023/01/20 10:04:48;;;;;;;50.63;22.65;;;;;;;2.17;71.27;100357.25;10175203;28;20503;-73
2023/01/20 10:09:58;;;;;;;46.08;21.65;;;;;;;2.27;71.66;100365.59;10174146;28;20061;-73
2023/01/20 10:15:07;;;;;;;46.80;20.77;;;;;;;2.39;70.03;100371.19;10148290;28;20048;-74
2023/01/20 10:20:21;;;;;;;39.67;20.42;;;;;;;2.61;69.60;100372.88;10169970;28;20048;-74
2023/01/20 10:25:29;;;;;;;34.38;17.63;;;;;;;1.87;69.14;100378.91;10167992;28;20059;-74
2023/01/20 10:30:36;;;;;;;38.55;20.15;;;;;;;2.42;69.18;100382.59;10166328;28;20042;-74
2023/01/20 10:35:43;;;;;;;29.65;14.25;;;;;;;2.18;68.00;100380.16;10161737;28;20055;-74
2023/01/20 10:40:52;;;;;;;24.63;13.70;;;;;;;1.83;67.09;100387.03;10172575;28;20139;-74
2023/01/20 10:46:10;;;;;;;32.08;15.95;;;;;;;2.01;67.80;100388.03;10133281;29;20058;-74
2023/01/20 10:51:24;;;;;;;29.08;13.50;;;;;;;1.83;67.13;100384.41;10133040;29;20081;-75
2023/01/20 10:56:36;;;;;;;30.33;15.40;;;;;;;2.98;65.83;100377.22;10150657;28;20530;-75
2023/01/20 11:01:41;;;;;;;29.98;15.55;;;;;;;3.48;67.10;100379.13;10181275;29;20059;-77
2023/01/20 11:06:45;;;;;;;28.02;12.77;;;;;;;3.82;63.07;100380.00;10180527;29;20036;-76
2023/01/20 11:11:48;;;;;;;20.30;10.90;;;;;;;4.38;58.72;100388.50;10199968;29;20582;-76
2023/01/20 11:16:59;;;;;;;22.08;11.88;;;;;;;6.18;60.98;100382.34;10195794;29;20124;-76
2023/01/20 11:22:10;;;;;;;23.35;11.77;;;;;;;5.36;58.31;100392.72;10179127;29;20170;-76
2023/01/20 11:27:16;;;;;;;21.42;12.10;;;;;;;4.89;59.05;100391.00;10200107;29;20384;-76
2023/01/20 11:32:41;;;;;;;21.10;11.93;;;;;;;3.73;59.03;100407.94;10180997;29;20048;-76
2023/01/20 11:37:44;;;;;;;18.00;9.18;;;;;;;3.55;60.55;100419.50;10206336;29;20056;-78
2023/01/20 11:42:48;;;;;;;17.77;10.05;;;;;;;3.05;61.44;100409.63;10215258;29;20426;-73
2023/01/20 11:48:02;;;;;;;18.30;9.10;;;;;;;2.26;62.37;100428.38;10224167;29;20043;-75
2023/01/20 11:53:16;;;;;;;21.35;10.50;;;;;;;2.73;62.32;100425.31;10211667;29;20118;-74
2023/01/20 11:58:21;;;;;;;21.23;12.52;;;;;;;2.92;62.83;100427.09;10198234;29;20079;-73
2023/01/20 12:03:50;;;;;;;20.38;9.20;;;;;;;2.92;60.27;100432.41;10202999;29;20521;-75
2023/01/20 12:08:59;;;;;;;18.27;9.75;;;;;;;2.74;60.78;100435.00;10180572;29;20052;-77
2023/01/20 12:14:27;;;;;;;21.95;12.07;;;;;;;2.70;61.42;100435.22;10187097;29;20048;-76
2023/01/20 12:19:37;;;;;;;20.85;10.20;;;;;;;2.67;62.51;100446.84;10211523;29;20051;-74
2023/01/20 12:30:20;;;;;;;19.92;11.40;;;;;;;2.77;63.06;100447.25;10194237;29;20522;-75
2023/01/20 12:35:33;;;;;;;16.85;9.73;;;;;;;2.64;61.62;100454.09;10215988;29;20059;-78
2023/01/20 12:40:46;;;;;;;17.83;9.67;;;;;;;2.64;60.07;100462.88;10200371;29;20115;-77
2023/01/20 12:45:56;;;;;;;;;;;;;;;2.43;59.28;100463.84;10180749;29;20066;-76
2023/01/20 12:51:16;;;;;;;16.73;9.00;;;;;;;2.35;60.09;100480.97;10179711;29;20294;-76
2023/01/20 12:56:28;;;;;;;17.65;9.35;;;;;;;2.38;60.17;100470.22;10181455;29;20087;-76
2023/01/20 13:01:42;;;;;;;16.95;9.18;;;;;;;2.60;59.05;100482.50;10193037;29;20055;-76
2023/01/20 13:07:03;;;;;;;19.08;9.55;;;;;;;2.68;59.18;100479.50;10200713;29;20555;-76
2023/01/20 13:12:24;;;;;;;22.42;11.23;;;;;;;2.47;61.30;100482.22;10179562;29;20055;-76
2023/01/20 13:17:34;;;;;;;22.70;10.98;;;;;;;2.61;61.94;100494.88;10194055;29;20079;-76
2023/01/20 13:22:39;;;;;;;18.15;10.25;;;;;;;2.58;60.57;100495.00;10200581;29;20446;-77
2023/01/20 13:27:43;;;;;;;14.90;8.50;;;;;;;2.43;59.51;100508.94;10174919;29;20040;-77
2023/01/20 13:32:47;;;;;;;20.05;8.50;;;;;;;2.48;59.50;100510.44;10197962;29;20047;-76
2023/01/20 13:37:55;;;;;;;17.13;9.35;;;;;;;2.42;59.52;100521.31;10231340;29;20103;-76
2023/01/20 13:42:58;;;;;;;22.95;12.13;;;;;;;2.51;61.63;100530.66;10177519;29;20099;-77
2023/01/20 13:48:16;;;;;;;22.13;11.82;;;;;;;2.57;62.16;100533.06;10210752;29;20040;-76
2023/01/20 13:53:28;;;;;;;26.95;11.35;;;;;;;2.56;61.81;100544.59;10218910;29;20047;-75
2023/01/20 13:58:43;;;;;;;22.98;11.93;;;;;;;2.64;63.59;100546.91;10205300;29;20043;-75
2023/01/20 14:04:01;;;;;;;21.98;12.27;;;;;;;2.76;64.21;100551.66;10213547;29;20459;-74
2023/01/20 14:09:18;;;;;;;19.42;11.32;;;;;;;2.77;63.57;100558.66;10216476;29;20044;-74
2023/01/20 14:14:23;;;;;;;20.40;11.13;;;;;;;2.74;62.40;100566.75;10209255;29;20048;-76
2023/01/20 14:19:31;;;;;;;22.13;10.88;;;;;;;2.64;61.03;100569.00;10220807;29;20443;-77
2023/01/20 14:24:37;;;;;;;22.20;12.10;;;;;;;2.55;61.25;100574.69;10205653;29;20126;-75
2023/01/20 14:29:40;;;;;;;20.33;10.65;;;;;;;2.53;60.78;100580.06;10184433;29;20083;-75
2023/01/20 14:34:43;;;;;;;18.88;10.43;;;;;;;2.54;60.80;100586.25;10202400;29;20067;-75
2023/01/20 14:39:50;;;;;;;21.98;10.52;;;;;;;2.52;60.82;100586.25;10171121;29;20044;-75
2023/01/20 14:44:55;;;;;;;23.30;11.13;;;;;;;2.45;60.14;100594.56;10179484;29;20566;-75
2023/01/20 14:49:58;;;;;;;23.48;9.93;;;;;;;2.53;60.99;100593.34;10196186;29;20127;-74
2023/01/20 14:55:02;;;;;;;21.60;10.38;;;;;;;2.52;60.31;100609.28;10192747;29;20479;-75
2023/01/20 15:00:19;;;;;;;21.65;12.35;;;;;;;2.58;60.44;100625.81;10181403;29;20075;-75
2023/01/20 15:05:27;;;;;;;27.75;13.93;;;;;;;2.59;60.87;100624.03;10188233;29;20048;-75
2023/01/20 15:10:31;;;;;;;28.15;14.73;;;;;;;2.48;60.96;100628.91;10194405;29;20119;-76
2023/01/20 15:21:21;;;;;;;24.85;13.18;;;;;;;2.15;62.57;100645.31;10419852;23;20573;-76
2023/01/20 15:26:28;;;;;;;27.38;13.88;;;;;;;2.03;62.68;100652.00;10176611;29;20052;-75
2023/01/20 15:31:31;;;;;;;29.38;14.65;;;;;;;2.08;62.83;100659.75;10176216;29;20039;-76
2023/01/20 15:36:35;;;;;;;39.17;18.42;;;;;;;2.06;63.33;100662.47;10176267;29;20456;-76
2023/01/20 15:41:40;;;;;;;38.17;19.30;;;;;;;2.00;63.78;100677.75;10182558;29;20055;-75
2023/01/20 15:46:42;;;;;;;28.42;16.02;;;;;;;1.94;64.40;100677.06;10188812;29;20468;-75
2023/01/20 15:51:46;;;;;;;30.35;16.02;;;;;;;1.85;65.25;100677.44;10186624;29;20463;-74
2023/01/20 15:56:50;;;;;;;31.77;17.33;;;;;;;1.62;66.39;100693.38;10199621;29;20536;-75
2023/01/20 16:01:53;;;;;;;33.75;17.52;;;;;;;1.54;67.17;100700.75;10194207;29;20126;-75
2023/01/20 16:06:55;;;;;;;35.60;17.75;;;;;;;1.38;67.52;100709.28;10195900;29;20044;-75
2023/01/20 16:11:59;;;;;;;39.33;19.73;;;;;;;1.21;68.01;100719.66;10159265;28;20179;-75
2023/01/20 16:17:02;;;;;;;42.88;21.10;;;;;;;1.04;68.52;100741.41;10147371;28;20172;-76
2023/01/20 16:22:07;;;;;;;43.05;19.65;;;;;;;0.79;68.88;100754.66;10141701;28;20055;-75
2023/01/20 16:27:18;;;;;;;37.38;19.67;;;;;;;0.78;69.16;100764.38;10155059;29;20048;-74
2023/01/20 16:32:22;;;;;;;35.10;18.77;;;;;;;0.68;69.30;100770.03;10160227;28;20063;-75
2023/01/20 16:37:25;;;;;;;35.42;19.48;;;;;;;0.68;69.29;100786.75;10152329;28;20071;-75
2023/01/20 16:42:29;;;;;;;70.95;33.25;;;;;;;0.70;69.32;100789.34;10144140;28;20053;-74
2023/01/20 16:47:32;;;;;;;39.03;20.90;;;;;;;0.70;69.06;100803.44;10165271;28;20052;-75
2023/01/20 16:52:35;;;;;;;44.03;20.00;;;;;;;0.75;68.67;100806.78;10157818;28;20442;-75
2023/01/20 16:57:39;;;;;;;37.60;19.95;;;;;;;0.75;68.87;100811.22;10150796;28;20052;-75
2023/01/20 17:02:44;;;;;;;34.45;19.15;;;;;;;0.75;68.56;100819.16;10144909;28;20073;-76
2023/01/20 17:07:47;;;;;;;42.95;21.25;;;;;;;0.78;68.36;100830.47;10158012;28;20080;-76
2023/01/20 17:12:53;;;;;;;37.30;20.38;;;;;;;0.74;68.43;100830.63;10158763;28;20063;-76
2023/01/20 17:17:58;;;;;;;39.03;20.00;;;;;;;0.66;68.57;100846.78;10148116;29;20119;-76
2023/01/20 17:23:02;;;;;;;38.92;19.00;;;;;;;0.54;68.78;100855.09;10146326;28;20120;-75
2023/01/20 17:28:06;;;;;;;37.83;19.95;;;;;;;0.50;69.18;100861.41;10144536;29;20688;-76
2023/01/20 17:33:09;;;;;;;39.40;19.77;;;;;;;0.51;69.38;100868.41;10151841;28;20052;-76
2023/01/20 17:38:11;;;;;;;42.50;21.83;;;;;;;0.52;69.25;100872.75;10153783;28;20572;-76
2023/01/20 17:43:15;;;;;;;43.08;21.75;;;;;;;0.35;70.04;100883.88;10168965;28;20051;-76
2023/01/20 17:48:18;;;;;;;46.65;21.95;;;;;;;0.21;70.55;100894.84;10161279;28;20047;-75
2023/01/20 17:53:21;;;;;;;48.53;22.45;;;;;;;0.12;70.25;100893.34;10154060;28;20059;-75
2023/01/20 17:58:25;;;;;;;53.58;24.58;;;;;;;-0.01;71.23;100905.19;10144948;28;20058;-76
2023/01/20 18:03:28;;;;;;;57.72;29.08;;;;;;;-0.06;71.13;100915.88;10145449;28;20055;-76
2023/01/20 18:08:31;;;;;;;55.58;26.73;;;;;;;-0.16;71.57;100925.00;10148992;28;20067;-76
2023/01/20 18:13:35;;;;;;;53.40;26.48;;;;;;;-0.20;71.58;100927.75;10155290;28;20094;-76
2023/01/20 18:18:39;;;;;;;45.72;25.42;;;;;;;-0.20;71.56;100940.94;10143922;28;20048;-76
2023/01/20 18:23:42;;;;;;;53.83;26.45;;;;;;;-0.27;71.67;100948.19;10144159;28;20095;-76
2023/01/20 18:28:46;;;;;;;49.70;24.38;;;;;;;-0.33;71.88;100965.06;10145935;28;20130;-76
2023/01/20 18:33:51;;;;;;;47.85;23.40;;;;;;;-0.41;71.83;100961.75;10154665;28;20048;-75
2023/01/20 18:38:55;;;;;;;51.42;26.08;;;;;;;-0.51;72.40;100973.44;10153362;28;20080;-77
2023/01/20 18:44:00;;;;;;;53.20;25.42;;;;;;;-0.50;72.25;100976.03;10137440;28;20059;-76
2023/01/20 18:49:04;;;;;;;53.08;24.90;;;;;;;-0.54;72.23;100984.09;10149001;28;20086;-76
2023/01/20 18:54:09;;;;;;;48.47;24.15;;;;;;;-0.58;72.30;100990.34;10152224;28;20189;-75
2023/01/20 18:59:14;;;;;;;53.40;23.45;;;;;;;-0.63;72.35;101000.13;10154477;28;20059;-74
2023/01/20 19:04:17;;;;;;;55.80;24.30;;;;;;;-0.75;72.41;101006.59;10140712;29;20052;-75
2023/01/20 19:09:20;;;;;;;53.33;25.58;;;;;;;-0.75;72.73;101012.72;10143085;28;20067;-76
2023/01/20 19:14:24;;;;;;;55.58;25.60;;;;;;;-0.77;72.76;101014.56;10153591;29;20461;-74
2023/01/20 19:19:26;;;;;;;52.50;25.98;;;;;;;-0.70;72.82;101028.47;10150564;28;20056;-76
2023/01/20 19:24:29;;;;;;;48.53;23.95;;;;;;;-0.70;72.92;101030.25;10137988;28;20586;-76
2023/01/20 19:29:33;;;;;;;57.72;26.25;;;;;;;-0.69;72.84;101034.59;10158788;28;20056;-75
2023/01/20 19:34:38;;;;;;;52.20;26.65;;;;;;;-0.70;72.82;101035.50;10188716;28;20075;-76
2023/01/20 19:39:40;;;;;;;52.92;26.45;;;;;;;-0.70;72.53;101044.28;10164549;28;20047;-76
2023/01/20 19:44:45;;;;;;;51.10;26.95;;;;;;;-0.70;72.97;101054.00;10147520;28;20454;-76
2023/01/20 19:49:47;;;;;;;86.53;35.40;;;;;;;-0.75;72.50;101060.22;10152058;28;20581;-76
2023/01/20 19:54:51;;;;;;;57.03;27.15;;;;;;;-0.73;72.58;101062.84;10159463;28;20151;-76
2023/01/20 19:59:55;;;;;;;52.88;27.00;;;;;;;-0.69;72.93;101069.75;10153892;28;20051;-76
2023/01/20 20:04:58;;;;;;;50.30;24.15;;;;;;;-0.68;72.63;101082.06;10143687;29;20537;-76
2023/01/20 20:10:00;;;;;;;57.58;27.42;;;;;;;-0.73;72.69;101092.72;10149286;28;20059;-76
2023/01/20 20:15:06;;;;;;;51.78;25.90;;;;;;;-0.80;72.48;101099.03;10157817;28;20063;-75
2023/01/20 20:20:10;;;;;;;45.60;24.63;;;;;;;-0.90;72.75;101102.81;10155854;28;20058;-77
2023/01/20 20:25:13;;;;;;;50.50;25.20;;;;;;;-0.92;72.52;101112.50;10146272;28;20071;-76
2023/01/20 20:30:18;;;;;;;50.47;25.85;;;;;;;-0.95;72.85;101110.81;10146874;29;20058;-75
2023/01/20 20:35:20;;;;;;;56.83;26.80;;;;;;;-0.93;72.82;101121.34;10157532;28;20078;-76
2023/01/20 20:40:24;;;;;;;51.00;25.88;;;;;;;-0.96;72.77;101124.91;10158118;28;20194;-76
2023/01/20 20:45:28;;;;;;;51.25;26.67;;;;;;;-1.01;72.48;101131.19;10144434;28;20139;-75
2023/01/20 20:50:31;;;;;;;54.97;27.80;;;;;;;-1.08;72.74;101129.56;10148892;29;20051;-76
2023/01/20 20:55:34;;;;;;;61.53;28.70;;;;;;;-1.04;72.96;101139.13;10155429;28;21409;-76
2023/01/20 21:00:38;;;;;;;55.92;27.20;;;;;;;-1.10;72.63;101148.03;10155884;28;20043;-76
2023/01/20 21:05:45;;;;;;;49.90;25.80;;;;;;;-1.14;72.81;101153.44;10149553;28;20055;-75
2023/01/20 21:10:47;;;;;;;51.65;26.73;;;;;;;-1.15;73.01;101165.75;10154960;28;20054;-76
2023/01/20 21:16:00;;;;;;;49.63;24.63;;;;;;;-1.25;72.93;101175.59;10152151;28;20044;-76
2023/01/20 21:21:05;;;;;;;51.03;24.80;;;;;;;-1.28;72.97;101182.69;10171632;28;20096;-77
2023/01/20 21:26:11;;;;;;;50.38;24.35;;;;;;;-1.28;72.99;101191.47;10149476;28;21186;-76
2023/01/20 21:31:17;;;;;;;54.67;24.23;;;;;;;-1.25;73.18;101187.91;10146796;29;20056;-77
2023/01/20 21:36:21;;;;;;;45.50;23.15;;;;;;;-1.27;73.05;101193.19;10155169;28;20504;-75
2023/01/20 21:41:24;;;;;;;53.22;25.98;;;;;;;-1.32;73.14;101194.19;10156918;28;20063;-75
2023/01/20 21:46:30;;;;;;;48.13;24.17;;;;;;;-1.32;73.20;101194.19;10147631;28;20044;-75
2023/01/20 21:56:53;;;;;;;55.25;27.45;;;;;;;-1.33;73.24;101216.19;10152185;28;20063;-74
2023/01/20 22:01:57;;;;;;;64.72;31.27;;;;;;;-1.42;73.03;101219.88;10156579;28;20056;-75
2023/01/20 22:07:00;;;;;;;53.45;27.48;;;;;;;-1.42;73.64;101231.28;10147441;28;20067;-75
2023/01/20 22:12:03;;;;;;;52.42;26.90;;;;;;;-1.47;73.28;101234.88;10142380;28;20056;-75
2023/01/20 22:17:10;;;;;;;55.33;28.17;;;;;;;-1.57;72.89;101239.44;10149812;28;20060;-76
2023/01/20 22:22:12;;;;;;;54.17;26.65;;;;;;;-1.58;72.88;101245.59;10152673;28;20052;-75
2023/01/20 22:27:17;;;;;;;52.67;26.38;;;;;;;-1.63;73.12;101250.09;10146036;28;20082;-76
2023/01/20 22:32:21;;;;;;;52.00;26.10;;;;;;;-1.70;72.76;101258.97;10137782;28;20059;-76
2023/01/20 22:37:24;;;;;;;55.05;25.38;;;;;;;-1.81;72.69;101266.19;10150308;28;20048;-76
2023/01/20 22:42:27;;;;;;;47.53;23.75;;;;;;;-1.81;73.22;101261.81;10152034;28;20135;-76
2023/01/20 22:47:31;;;;;;;47.72;24.20;;;;;;;-1.75;73.44;101274.00;10154704;28;20513;-76
2023/01/20 22:52:34;;;;;;;53.65;26.20;;;;;;;-1.70;73.36;101278.31;10138831;29;20511;-76
2023/01/20 22:57:37;;;;;;;48.67;23.88;;;;;;;-1.75;72.95;101295.94;10154542;28;20464;-75
2023/01/20 23:02:41;;;;;;;44.55;23.90;;;;;;;-1.73;73.50;101295.91;10154783;28;20056;-76
2023/01/20 23:07:44;;;;;;;55.65;24.92;;;;;;;-1.68;73.40;101287.03;10178241;28;20090;-76
2023/01/20 23:12:46;;;;;;;42.22;22.73;;;;;;;-1.66;73.29;101295.78;10200688;23;20048;-75
2023/01/20 23:17:50;;;;;;;48.08;24.70;;;;;;;-1.57;73.57;101307.94;10204296;29;20063;-76
2023/01/20 23:22:53;;;;;;;46.55;23.42;;;;;;;-1.68;72.73;101316.00;10209843;29;20169;-75
2023/01/20 23:27:56;;;;;;;51.97;24.52;;;;;;;-1.82;72.45;101318.00;10207912;29;20059;-77
2023/01/20 23:33:00;;;;;;;48.45;24.42;;;;;;;-2.01;72.94;101329.69;10207990;29;20067;-74
2023/01/20 23:38:03;;;;;;;48.17;23.58;;;;;;;-2.01;73.20;101340.22;10209213;29;20558;-76
2023/01/20 23:43:06;;;;;;;43.78;21.73;;;;;;;-1.94;73.38;101341.91;10201744;29;20040;-75